sensor_id;sensor_type;location;lat;lon;timestamp;pressure;altitude;pressure_sealevel;temperature;humidity
62510;BME280;48558;48.242;11.654;2022-10-03T00:06:14;96901.97;;;10.21;100.00
62510;BME280;48558;48.242;11.654;2022-10-03T00:20:26;96913.56;;;10.03;100.00
62510;BME280;48558;48.242;11.654;2022-10-03T00:24:56;96923.84;;;10.02;100.00
62510;BME280;48558;48.242;11.654;2022-10-03T00:29:35;96922.88;;;9.96;100.00
62510;BME280;48558;48.242;11.654;2022-10-03T01:01:46;96949.00;;;9.00;100.00
62510;BME280;48558;48.242;11.654;2022-10-03T01:06:45;96955.91;;;8.80;100.00
62510;BME280;48558;48.242;11.654;2022-10-03T01:15:40;96949.69;;;8.76;100.00
62510;BME280;48558;48.242;11.654;2022-10-03T01:20:13;96959.59;;;8.73;100.00
62510;BME280;48558;48.242;11.654;2022-10-03T01:24:53;96955.47;;;8.81;100.00
62510;BME280;48558;48.242;11.654;2022-10-03T01:29:18;96963.78;;;8.94;100.00
62510;BME280;48558;48.242;11.654;2022-10-03T01:34:04;96960.91;;;9.26;100.00
62510;BME280;48558;48.242;11.654;2022-10-03T01:43:10;96976.38;;;9.49;100.00
62510;BME280;48558;48.242;11.654;2022-10-03T01:47:48;96980.34;;;9.48;100.00
62510;BME280;48558;48.242;11.654;2022-10-03T01:52:30;96981.25;;;9.57;100.00
62510;BME280;48558;48.242;11.654;2022-10-03T02:05:52;97002.81;;;9.87;100.00
62510;BME280;48558;48.242;11.654;2022-10-03T02:19:28;97009.66;;;9.83;100.00
62510;BME280;48558;48.242;11.654;2022-10-03T02:23:43;97008.09;;;9.69;100.00
62510;BME280;48558;48.242;11.654;2022-10-03T02:29:08;97009.97;;;9.72;100.00
62510;BME280;48558;48.242;11.654;2022-10-03T02:33:23;97003.56;;;9.75;100.00
62510;BME280;48558;48.242;11.654;2022-10-03T03:24:51;97039.97;;;8.39;100.00
62510;BME280;48558;48.242;11.654;2022-10-03T03:51:42;97052.97;;;8.03;100.00
62510;BME280;48558;48.242;11.654;2022-10-03T04:05:37;97063.22;;;8.03;100.00
62510;BME280;48558;48.242;11.654;2022-10-03T04:18:59;97056.97;;;7.82;100.00
62510;BME280;48558;48.242;11.654;2022-10-03T04:32:57;97060.84;;;7.85;100.00
62510;BME280;48558;48.242;11.654;2022-10-03T04:46:48;97051.94;;;7.97;100.00
62510;BME280;48558;48.242;11.654;2022-10-03T04:51:11;97052.53;;;7.88;100.00
62510;BME280;48558;48.242;11.654;2022-10-03T04:55:49;97054.84;;;7.90;100.00
62510;BME280;48558;48.242;11.654;2022-10-03T05:05:15;97061.63;;;7.85;100.00
62510;BME280;48558;48.242;11.654;2022-10-03T05:18:19;97064.00;;;7.67;100.00
62510;BME280;48558;48.242;11.654;2022-10-03T05:23:16;97068.72;;;7.67;100.00
62510;BME280;48558;48.242;11.654;2022-10-03T05:28:05;97067.75;;;7.57;100.00
62510;BME280;48558;48.242;11.654;2022-10-03T05:32:24;97075.72;;;7.52;100.00
62510;BME280;48558;48.242;11.654;2022-10-03T05:41:26;97081.91;;;7.36;100.00
62510;BME280;48558;48.242;11.654;2022-10-03T05:45:47;97095.31;;;7.34;100.00
62510;BME280;48558;48.242;11.654;2022-10-03T05:50:17;97095.97;;;7.42;100.00
62510;BME280;48558;48.242;11.654;2022-10-03T05:54:48;97095.97;;;7.42;100.00
62510;BME280;48558;48.242;11.654;2022-10-03T06:04:18;97108.72;;;7.52;100.00
62510;BME280;48558;48.242;11.654;2022-10-03T06:26:32;97144.84;;;9.42;100.00
62510;BME280;48558;48.242;11.654;2022-10-03T06:31:32;97156.94;;;9.76;100.00
62510;BME280;48558;48.242;11.654;2022-10-03T06:36:05;97150.22;;;9.90;100.00
62510;BME280;48558;48.242;11.654;2022-10-03T06:58:35;97172.34;;;10.81;100.00
62510;BME280;48558;48.242;11.654;2022-10-03T07:07:49;97174.34;;;10.68;100.00
62510;BME280;48558;48.242;11.654;2022-10-03T07:12:37;97171.81;;;10.87;100.00
62510;BME280;48558;48.242;11.654;2022-10-03T07:25:50;97184.97;;;11.54;100.00
62510;BME280;48558;48.242;11.654;2022-10-03T07:34:52;97199.41;;;11.84;100.00
62510;BME280;48558;48.242;11.654;2022-10-03T08:02:42;97208.91;;;12.69;100.00
62510;BME280;48558;48.242;11.654;2022-10-03T08:07:23;97200.53;;;12.60;100.00
62510;BME280;48558;48.242;11.654;2022-10-03T08:12:12;97199.91;;;12.96;100.00
62510;BME280;48558;48.242;11.654;2022-10-03T08:20:56;97207.38;;;12.47;100.00
62510;BME280;48558;48.242;11.654;2022-10-03T09:16:29;97245.47;;;13.47;100.00
62510;BME280;48558;48.242;11.654;2022-10-03T09:25:55;97241.81;;;13.78;100.00
62510;BME280;48558;48.242;11.654;2022-10-03T09:39:29;97233.34;;;14.54;100.00
62510;BME280;48558;48.242;11.654;2022-10-03T09:44:00;97243.34;;;14.69;100.00
62510;BME280;48558;48.242;11.654;2022-10-03T11:01:14;97208.69;;;16.54;100.00
62510;BME280;48558;48.242;11.654;2022-10-03T11:38:26;97190.09;;;16.95;82.67
62510;BME280;48558;48.242;11.654;2022-10-03T11:51:35;97186.88;;;17.16;88.92
62510;BME280;48558;48.242;11.654;2022-10-03T12:00:18;97186.94;;;17.37;84.99
62510;BME280;48558;48.242;11.654;2022-10-03T12:04:48;97186.34;;;16.98;84.37
62510;BME280;48558;48.242;11.654;2022-10-03T12:09:19;97185.75;;;16.21;89.13
62510;BME280;48558;48.242;11.654;2022-10-03T12:18:09;97182.59;;;14.68;100.00
62510;BME280;48558;48.242;11.654;2022-10-03T12:27:00;97170.72;;;14.67;100.00
62510;BME280;48558;48.242;11.654;2022-10-03T12:31:34;97165.66;;;14.48;100.00
62510;BME280;48558;48.242;11.654;2022-10-03T12:36:02;97157.63;;;14.50;100.00
62510;BME280;48558;48.242;11.654;2022-10-03T12:40:23;97160.00;;;14.33;100.00
62510;BME280;48558;48.242;11.654;2022-10-03T12:44:47;97155.31;;;14.48;100.00
62510;BME280;48558;48.242;11.654;2022-10-03T12:49:15;97168.47;;;14.29;100.00
62510;BME280;48558;48.242;11.654;2022-10-03T12:53:32;97167.81;;;14.53;100.00
62510;BME280;48558;48.242;11.654;2022-10-03T12:57:55;97152.41;;;15.41;96.87
62510;BME280;48558;48.242;11.654;2022-10-03T13:06:39;97147.16;;;16.92;80.82
62510;BME280;48558;48.242;11.654;2022-10-03T13:20:31;97145.19;;;17.68;78.20
62510;BME280;48558;48.242;11.654;2022-10-03T13:24:53;97144.22;;;17.16;73.28
62510;BME280;48558;48.242;11.654;2022-10-03T13:33:42;97139.44;;;14.81;87.17
62510;BME280;48558;48.242;11.654;2022-10-03T13:42:41;97146.56;;;14.13;95.41
62510;BME280;48558;48.242;11.654;2022-10-03T13:47:19;97141.94;;;14.10;99.78
62510;BME280;48558;48.242;11.654;2022-10-03T13:56:26;97127.66;;;14.86;100.00
62510;BME280;48558;48.242;11.654;2022-10-03T14:01:02;97122.44;;;15.59;100.00
62510;BME280;48558;48.242;11.654;2022-10-03T14:09:59;97120.16;;;16.25;85.20
62510;BME280;48558;48.242;11.654;2022-10-03T14:23:17;97120.22;;;15.87;77.86
62510;BME280;48558;48.242;11.654;2022-10-03T14:27:40;97120.88;;;15.97;74.11
62510;BME280;48558;48.242;11.654;2022-10-03T14:32:00;97117.75;;;15.65;75.38
62510;BME280;48558;48.242;11.654;2022-10-03T14:36:28;97123.31;;;15.65;77.86
62510;BME280;48558;48.242;11.654;2022-10-03T14:40:51;97116.59;;;15.57;79.24
62510;BME280;48558;48.242;11.654;2022-10-03T14:45:15;97102.53;;;15.28;79.08
62510;BME280;48558;48.242;11.654;2022-10-03T14:49:30;97120.44;;;15.13;91.16
62510;BME280;48558;48.242;11.654;2022-10-03T14:54:23;97114.03;;;14.56;83.49
62510;BME280;48558;48.242;11.654;2022-10-03T14:58:44;97119.34;;;14.45;86.46
62510;BME280;48558;48.242;11.654;2022-10-03T15:03:12;97105.78;;;14.19;87.70
62510;BME280;48558;48.242;11.654;2022-10-03T15:07:51;97098.19;;;14.38;84.77
62510;BME280;48558;48.242;11.654;2022-10-03T15:12:40;97097.75;;;14.30;83.61
62510;BME280;48558;48.242;11.654;2022-10-03T15:16:55;97099.13;;;14.35;85.67
62510;BME280;48558;48.242;11.654;2022-10-03T15:21:13;97104.38;;;14.33;83.99
62510;BME280;48558;48.242;11.654;2022-10-03T15:25:36;97099.75;;;14.21;83.42
62510;BME280;48558;48.242;11.654;2022-10-03T15:29:53;97101.16;;;14.07;83.20
62510;BME280;48558;48.242;11.654;2022-10-03T15:34:23;97109.41;;;13.93;84.85
62510;BME280;48558;48.242;11.654;2022-10-03T15:38:46;97100.28;;;13.92;88.85
62510;BME280;48558;48.242;11.654;2022-10-03T15:43:34;97096.91;;;13.79;84.54
62510;BME280;48558;48.242;11.654;2022-10-03T15:47:49;97094.13;;;13.70;84.41
62510;BME280;48558;48.242;11.654;2022-10-03T15:52:14;97096.28;;;13.57;85.71
62510;BME280;48558;48.242;11.654;2022-10-03T15:56:32;97095.06;;;13.49;87.15
62510;BME280;48558;48.242;11.654;2022-10-03T16:00:55;97094.44;;;13.27;92.85
62510;BME280;48558;48.242;11.654;2022-10-03T16:05:16;97102.13;;;13.14;97.49
62510;BME280;48558;48.242;11.654;2022-10-03T16:14:28;97094.47;;;12.87;100.00
62510;BME280;48558;48.242;11.654;2022-10-03T16:23:40;97093.50;;;12.63;100.00
62510;BME280;48558;48.242;11.654;2022-10-03T16:28:00;97099.16;;;12.50;100.00
62510;BME280;48558;48.242;11.654;2022-10-03T16:32:19;97089.50;;;12.33;100.00
62510;BME280;48558;48.242;11.654;2022-10-03T16:36:41;97090.41;;;11.99;100.00
62510;BME280;48558;48.242;11.654;2022-10-03T16:41:03;97103.63;;;11.95;100.00
62510;BME280;48558;48.242;11.654;2022-10-03T16:45:31;97095.91;;;11.90;100.00
62510;BME280;48558;48.242;11.654;2022-10-03T16:49:53;97101.53;;;11.65;100.00
62510;BME280;48558;48.242;11.654;2022-10-03T16:54:29;97103.91;;;11.32;100.00
62510;BME280;48558;48.242;11.654;2022-10-03T16:58:48;97105.69;;;10.92;100.00
62510;BME280;48558;48.242;11.654;2022-10-03T17:03:03;97105.03;;;10.63;100.00
62510;BME280;48558;48.242;11.654;2022-10-03T17:07:20;97105.50;;;10.49;100.00
62510;BME280;48558;48.242;11.654;2022-10-03T17:11:36;97110.22;;;10.36;100.00
62510;BME280;48558;48.242;11.654;2022-10-03T17:15:56;97095.81;;;10.03;100.00
62510;BME280;48558;48.242;11.654;2022-10-03T17:20:14;97108.69;;;9.81;100.00
62510;BME280;48558;48.242;11.654;2022-10-03T17:24:36;97104.44;;;9.64;100.00
62510;BME280;48558;48.242;11.654;2022-10-03T17:29:07;97107.50;;;9.53;100.00
62510;BME280;48558;48.242;11.654;2022-10-03T17:37:57;97105.72;;;9.18;100.00
62510;BME280;48558;48.242;11.654;2022-10-03T17:42:52;97103.03;;;9.14;100.00
62510;BME280;48558;48.242;11.654;2022-10-03T17:47:22;97113.31;;;8.98;100.00
62510;BME280;48558;48.242;11.654;2022-10-03T17:51:39;97117.38;;;8.77;100.00
62510;BME280;48558;48.242;11.654;2022-10-03T17:55:57;97116.75;;;8.70;100.00
62510;BME280;48558;48.242;11.654;2022-10-03T18:00:20;97126.56;;;8.54;100.00
62510;BME280;48558;48.242;11.654;2022-10-03T18:04:38;97120.44;;;8.47;100.00
62510;BME280;48558;48.242;11.654;2022-10-03T18:08:57;97122.41;;;8.46;100.00
62510;BME280;48558;48.242;11.654;2022-10-03T18:13:40;97119.47;;;8.37;100.00
62510;BME280;48558;48.242;11.654;2022-10-03T18:22:32;97111.69;;;8.16;100.00
62510;BME280;48558;48.242;11.654;2022-10-03T18:31:19;97111.84;;;8.09;100.00
62510;BME280;48558;48.242;11.654;2022-10-03T18:35:36;97120.13;;;7.89;100.00
62510;BME280;48558;48.242;11.654;2022-10-03T18:39:49;97117.50;;;7.82;100.00
62510;BME280;48558;48.242;11.654;2022-10-03T18:44:05;97120.78;;;7.77;100.00
62510;BME280;48558;48.242;11.654;2022-10-03T18:48:42;97114.50;;;7.77;100.00
62510;BME280;48558;48.242;11.654;2022-10-03T18:53:34;97125.19;;;7.71;100.00
62510;BME280;48558;48.242;11.654;2022-10-03T18:58:03;97125.78;;;7.63;100.00
62510;BME280;48558;48.242;11.654;2022-10-03T19:02:32;97121.69;;;7.51;100.00
62510;BME280;48558;48.242;11.654;2022-10-03T19:06:50;97119.06;;;7.44;100.00
62510;BME280;48558;48.242;11.654;2022-10-03T19:16:04;97118.44;;;7.37;100.00
62510;BME280;48558;48.242;11.654;2022-10-03T19:20:31;97120.97;;;7.28;100.00
62510;BME280;48558;48.242;11.654;2022-10-03T19:24:47;97116.78;;;7.19;100.00
62510;BME280;48558;48.242;11.654;2022-10-03T19:29:14;97116.50;;;7.14;100.00
62510;BME280;48558;48.242;11.654;2022-10-03T19:33:31;97119.28;;;7.10;100.00
62510;BME280;48558;48.242;11.654;2022-10-03T19:37:46;97113.09;;;7.06;100.00
62510;BME280;48558;48.242;11.654;2022-10-03T19:42:23;97119.84;;;7.02;100.00
62510;BME280;48558;48.242;11.654;2022-10-03T19:51:23;97112.16;;;6.93;100.00
62510;BME280;48558;48.242;11.654;2022-10-03T19:55:37;97122.13;;;6.84;100.00
62510;BME280;48558;48.242;11.654;2022-10-03T19:59:55;97112.03;;;6.77;100.00
62510;BME280;48558;48.242;11.654;2022-10-03T20:04:09;97120.75;;;6.72;100.00
62510;BME280;48558;48.242;11.654;2022-10-03T20:08:31;97116.94;;;6.66;100.00
62510;BME280;48558;48.242;11.654;2022-10-03T20:12:50;97124.84;;;6.61;100.00
62510;BME280;48558;48.242;11.654;2022-10-03T20:17:15;97116.22;;;6.62;100.00
62510;BME280;48558;48.242;11.654;2022-10-03T20:21:30;97121.59;;;6.69;100.00
62510;BME280;48558;48.242;11.654;2022-10-03T20:30:39;97114.75;;;6.54;100.00
62510;BME280;48558;48.242;11.654;2022-10-03T20:34:56;97119.84;;;6.56;100.00
62510;BME280;48558;48.242;11.654;2022-10-03T20:43:38;97116.38;;;6.51;100.00
62510;BME280;48558;48.242;11.654;2022-10-03T20:48:01;97112.91;;;6.47;100.00
62510;BME280;48558;48.242;11.654;2022-10-03T20:52:18;97106.09;;;6.32;100.00
62510;BME280;48558;48.242;11.654;2022-10-03T20:56:39;97099.56;;;6.23;100.00
62510;BME280;48558;48.242;11.654;2022-10-03T21:01:25;97109.41;;;6.20;100.00
62510;BME280;48558;48.242;11.654;2022-10-03T21:05:43;97103.19;;;6.16;100.00
62510;BME280;48558;48.242;11.654;2022-10-03T21:10:22;97100.91;;;6.11;100.00
62510;BME280;48558;48.242;11.654;2022-10-03T21:14:44;97099.03;;;6.05;100.00
62510;BME280;48558;48.242;11.654;2022-10-03T21:19:02;97095.13;;;6.06;100.00
62510;BME280;48558;48.242;11.654;2022-10-03T21:23:19;97089.38;;;5.97;100.00
62510;BME280;48558;48.242;11.654;2022-10-03T21:27:34;97095.31;;;5.92;100.00
62510;BME280;48558;48.242;11.654;2022-10-03T21:36:11;97086.00;;;5.82;100.00
62510;BME280;48558;48.242;11.654;2022-10-03T21:50:02;97083.03;;;5.69;100.00
62510;BME280;48558;48.242;11.654;2022-10-03T21:54:40;97098.34;;;5.67;100.00
62510;BME280;48558;48.242;11.654;2022-10-03T22:03:44;97077.16;;;5.71;100.00
62510;BME280;48558;48.242;11.654;2022-10-03T22:08:11;97060.75;;;5.67;100.00
62510;BME280;48558;48.242;11.654;2022-10-03T22:12:26;97052.25;;;5.58;100.00
62510;BME280;48558;48.242;11.654;2022-10-03T22:17:05;97052.34;;;5.51;100.00
62510;BME280;48558;48.242;11.654;2022-10-03T22:21:24;97032.72;;;5.53;100.00
62510;BME280;48558;48.242;11.654;2022-10-03T22:25:58;97033.97;;;5.48;100.00
62510;BME280;48558;48.242;11.654;2022-10-03T22:30:18;97028.53;;;5.45;100.00
62510;BME280;48558;48.242;11.654;2022-10-03T22:34:39;97033.75;;;5.36;100.00
62510;BME280;48558;48.242;11.654;2022-10-03T22:38:55;97027.16;;;5.30;100.00
62510;BME280;48558;48.242;11.654;2022-10-03T22:43:09;97023.69;;;5.26;100.00
62510;BME280;48558;48.242;11.654;2022-10-03T22:47:24;97011.63;;;5.20;100.00
62510;BME280;48558;48.242;11.654;2022-10-03T22:51:38;97020.22;;;5.22;100.00
62510;BME280;48558;48.242;11.654;2022-10-03T22:55:55;97012.81;;;5.19;100.00
62510;BME280;48558;48.242;11.654;2022-10-03T23:00:20;97021.00;;;5.22;100.00
62510;BME280;48558;48.242;11.654;2022-10-03T23:04:38;97016.84;;;5.11;100.00
62510;BME280;48558;48.242;11.654;2022-10-03T23:13:41;97015.69;;;5.08;100.00
62510;BME280;48558;48.242;11.654;2022-10-03T23:22:25;97022.38;;;5.03;100.00
62510;BME280;48558;48.242;11.654;2022-10-03T23:26:57;97015.41;;;4.95;100.00
62510;BME280;48558;48.242;11.654;2022-10-03T23:36:16;97012.78;;;4.88;100.00
62510;BME280;48558;48.242;11.654;2022-10-03T23:49:00;97012.03;;;4.84;100.00
62510;BME280;48558;48.242;11.654;2022-10-03T23:53:27;97004.66;;;4.78;100.00
62510;BME280;48558;48.242;11.654;2022-10-03T23:57:41;97011.72;;;4.79;100.00
